createdAt,value
2023-03-06T00:00:42.644Z,93302.22
2023-03-06T00:03:09.344Z,93303.81
2023-03-06T00:05:36.327Z,93304.47
2023-03-06T00:08:03.604Z,93303.22
2023-03-06T00:10:31.342Z,93300.03
2023-03-06T00:13:00.381Z,93300.09
2023-03-06T00:15:27.965Z,93303.50
2023-03-06T00:17:55.030Z,93303.44
2023-03-06T00:20:22.330Z,93296.47
2023-03-06T00:22:49.624Z,93296.13
2023-03-06T00:25:19.034Z,93297.75
2023-03-06T00:27:45.843Z,93304.88
2023-03-06T00:30:16.275Z,93297.97
2023-03-06T00:32:43.710Z,93286.34
2023-03-06T00:35:10.922Z,93285.38
2023-03-06T00:37:37.863Z,93287.84
2023-03-06T00:40:11.258Z,93280.16
2023-03-06T00:42:38.098Z,93264.97
2023-03-06T00:45:06.205Z,93276.84
2023-03-06T00:47:33.125Z,93269.31
2023-03-06T00:49:59.992Z,93270.69
2023-03-06T00:52:26.760Z,93261.00
2023-03-06T00:54:53.512Z,93271.69
2023-03-06T00:57:20.384Z,93273.25
2023-03-06T00:59:47.122Z,93268.69
2023-03-06T01:02:14.352Z,93267.28
2023-03-06T01:04:41.360Z,93262.59
2023-03-06T01:07:08.203Z,93263.00
2023-03-06T01:09:35.030Z,93249.78
2023-03-06T01:12:01.879Z,93251.97
2023-03-06T01:14:28.617Z,93247.22
2023-03-06T01:16:55.446Z,93240.13
2023-03-06T01:19:22.203Z,93239.94
2023-03-06T01:21:49.005Z,93233.06
2023-03-06T01:24:15.776Z,93226.53
2023-03-06T01:26:42.576Z,93216.91
2023-03-06T01:29:09.354Z,93222.81
2023-03-06T01:31:36.260Z,93214.53
2023-03-06T01:34:03.096Z,93220.88
2023-03-06T01:36:29.901Z,93218.06
2023-03-06T01:38:56.605Z,93219.03
2023-03-06T01:41:23.319Z,93210.16
2023-03-06T01:43:50.515Z,93212.56
2023-03-06T01:46:23.091Z,93211.19
2023-03-06T01:48:54.487Z,93204.84
2023-03-06T01:51:22.372Z,93206.19
2023-03-06T01:53:50.770Z,93202.28
2023-03-06T01:56:17.854Z,93196.56
2023-03-06T01:58:44.776Z,93193.78
2023-03-06T02:01:13.377Z,93194.78
2023-03-06T02:03:40.863Z,93194.59
2023-03-06T02:06:08.011Z,93192.84
2023-03-06T02:08:34.860Z,93181.78
2023-03-06T02:11:08.948Z,93184.53
2023-03-06T02:13:36.736Z,93181.78
2023-03-06T02:16:03.952Z,93176.31
2023-03-06T02:18:31.826Z,93176.06
2023-03-06T02:21:01.088Z,93180.41
2023-03-06T02:23:37.015Z,93164.25
2023-03-06T02:26:04.580Z,93166.78
2023-03-06T02:28:31.537Z,93157.69
2023-03-06T02:30:58.346Z,93161.19
2023-03-06T02:33:27.362Z,93155.72
2023-03-06T02:35:55.777Z,93157.13
2023-03-06T02:38:27.071Z,93150.59
2023-03-06T02:40:54.120Z,93149.81
2023-03-06T02:43:28.559Z,93142.75
2023-03-06T02:45:55.445Z,93148.03
2023-03-06T02:48:22.235Z,93145.72
2023-03-06T02:50:49.421Z,93145.88
2023-03-06T02:53:18.385Z,93141.13
2023-03-06T02:55:45.560Z,93133.84
2023-03-06T02:58:12.603Z,93130.91
2023-03-06T03:00:40.157Z,93130.53
2023-03-06T03:03:07.845Z,93126.56
2023-03-06T03:05:34.632Z,93126.94
2023-03-06T03:08:01.294Z,93123.38
2023-03-06T03:10:28.159Z,93129.34
2023-03-06T03:12:54.899Z,93118.31
2023-03-06T03:15:21.727Z,93120.69
2023-03-06T03:17:48.497Z,93127.00
2023-03-06T03:20:18.810Z,93117.13
2023-03-06T03:23:03.836Z,93113.38
2023-03-06T03:25:30.597Z,93114.97
2023-03-06T03:27:57.323Z,93112.81
2023-03-06T03:30:24.173Z,93105.13
2023-03-06T03:32:50.900Z,93112.03
2023-03-06T03:35:17.771Z,93106.09
2023-03-06T03:37:45.045Z,93092.91
2023-03-06T03:40:12.392Z,93093.69
2023-03-06T03:42:39.397Z,93092.25
2023-03-06T03:45:06.682Z,93094.16
2023-03-06T03:47:33.382Z,93088.50
2023-03-06T03:50:00.128Z,93080.44
2023-03-06T03:52:26.934Z,93074.97
2023-03-06T03:54:53.722Z,93072.34
2023-03-06T03:57:20.385Z,93075.84
2023-03-06T03:59:47.091Z,93068.56
2023-03-06T04:02:13.855Z,93066.84
2023-03-06T04:04:40.913Z,93063.50
2023-03-06T04:07:07.702Z,93058.59
2023-03-06T04:09:34.428Z,93067.03
2023-03-06T04:12:01.239Z,93060.72
2023-03-06T04:14:27.946Z,93051.66
2023-03-06T04:16:54.709Z,93055.50
2023-03-06T04:19:21.574Z,93059.91
2023-03-06T04:21:48.471Z,93061.34
2023-03-06T04:24:15.169Z,93061.41
2023-03-06T04:26:42.004Z,93053.59
2023-03-06T04:29:08.902Z,93055.06
2023-03-06T04:31:35.752Z,93048.34
2023-03-06T04:34:02.528Z,93051.72
2023-03-06T04:36:31.784Z,93049.91
2023-03-06T04:38:59.515Z,93045.59
2023-03-06T04:41:26.349Z,93038.16
2023-03-06T04:43:53.512Z,93041.75
2023-03-06T04:46:20.389Z,93032.69
2023-03-06T04:48:47.154Z,93038.38
2023-03-06T04:51:14.751Z,93040.09
2023-03-06T04:53:41.545Z,93031.22
2023-03-06T04:56:08.501Z,93032.38
2023-03-06T04:58:35.290Z,93032.81
2023-03-06T05:01:02.165Z,93035.19
2023-03-06T05:03:28.857Z,93031.03
2023-03-06T05:05:55.728Z,93037.31
2023-03-06T05:08:23.799Z,93016.63
2023-03-06T05:10:56.489Z,93028.44
2023-03-06T05:13:23.802Z,93028.75
2023-03-06T05:15:50.569Z,93030.91
2023-03-06T05:18:17.518Z,93018.47
2023-03-06T05:20:44.376Z,93025.34
2023-03-06T05:23:10.995Z,93019.38
2023-03-06T05:25:40.792Z,93026.78
2023-03-06T05:28:07.965Z,93017.00
2023-03-06T05:30:35.210Z,93024.41
2023-03-06T05:33:01.812Z,93025.16
2023-03-06T05:35:28.528Z,93017.50
2023-03-06T05:37:55.268Z,93024.56
2023-03-06T05:40:22.386Z,93022.31
2023-03-06T05:42:49.091Z,93020.81
2023-03-06T05:45:15.916Z,93019.97
2023-03-06T05:47:42.640Z,93019.59
2023-03-06T05:50:10.641Z,93020.44
2023-03-06T05:52:39.597Z,92996.84
2023-03-06T05:55:07.038Z,93016.31
2023-03-06T05:57:33.810Z,93014.91
2023-03-06T06:00:00.563Z,93003.91
2023-03-06T06:02:27.318Z,93012.38
2023-03-06T06:04:54.101Z,93015.50
2023-03-06T06:07:20.828Z,93019.66
2023-03-06T06:09:47.577Z,93019.78
2023-03-06T06:12:14.347Z,93018.50
2023-03-06T06:14:41.159Z,93021.25
2023-03-06T06:17:08.167Z,93012.50
2023-03-06T06:19:35.337Z,93007.31
2023-03-06T06:22:03.868Z,93002.94
2023-03-06T06:24:31.987Z,93005.38
2023-03-06T06:26:59.691Z,93001.91
2023-03-06T06:29:28.478Z,93019.13
2023-03-06T06:31:55.859Z,93018.72
2023-03-06T06:34:23.077Z,93017.38
2023-03-06T06:36:53.222Z,93007.78
2023-03-06T06:39:21.889Z,93011.34
2023-03-06T06:42:05.544Z,93014.13
2023-03-06T06:44:37.437Z,93003.47
2023-03-06T06:47:24.192Z,93012.09
2023-03-06T06:49:53.237Z,93004.59
2023-03-06T06:52:20.215Z,93010.31
2023-03-06T06:54:47.081Z,93012.53
2023-03-06T06:57:13.849Z,93005.66
2023-03-06T06:59:40.599Z,93016.31
2023-03-06T07:02:07.423Z,93014.75
2023-03-06T07:04:34.368Z,93014.13
2023-03-06T07:07:01.339Z,93010.84
2023-03-06T07:09:30.588Z,93004.13
2023-03-06T07:11:57.795Z,93008.47
2023-03-06T07:14:25.499Z,93003.34
2023-03-06T07:16:52.250Z,93009.03
2023-03-06T07:19:19.083Z,93004.16
2023-03-06T07:21:45.837Z,93009.09
2023-03-06T07:24:12.648Z,93003.94
2023-03-06T07:26:39.501Z,93005.72
2023-03-06T07:29:06.330Z,93014.38
2023-03-06T07:31:33.126Z,93009.88
2023-03-06T07:34:00.224Z,93006.09
2023-03-06T07:36:27.519Z,93005.72
2023-03-06T07:38:54.362Z,93010.03
2023-03-06T07:41:22.632Z,93020.31
2023-03-06T07:43:50.414Z,93009.47
2023-03-06T07:46:17.554Z,93017.56
2023-03-06T07:48:44.820Z,93009.25
2023-03-06T07:51:16.714Z,93011.56
2023-03-06T07:53:43.750Z,93012.16
2023-03-06T07:56:11.928Z,93008.84
2023-03-06T07:58:41.082Z,93009.53
2023-03-06T08:01:16.836Z,92999.31
2023-03-06T08:03:44.133Z,93015.28
2023-03-06T08:06:13.122Z,93010.66
2023-03-06T08:08:41.846Z,93012.84
2023-03-06T08:11:10.042Z,93007.91
2023-03-06T08:13:37.322Z,93009.28
2023-03-06T08:16:04.556Z,93011.56
2023-03-06T08:18:31.532Z,93016.84
2023-03-06T08:21:15.168Z,93019.09
2023-03-06T08:23:43.158Z,93007.50
2023-03-06T08:26:18.953Z,93012.06
2023-03-06T08:28:46.252Z,93009.09
2023-03-06T08:31:29.838Z,92999.09
2023-03-06T08:33:58.452Z,93005.97
2023-03-06T08:36:25.520Z,93013.66
2023-03-06T08:38:52.750Z,93015.84
2023-03-06T08:41:20.373Z,93020.56
2023-03-06T08:43:47.742Z,93021.78
2023-03-06T08:46:14.540Z,93014.72
2023-03-06T08:48:41.280Z,93013.91
2023-03-06T08:51:12.430Z,93020.19
2023-03-06T08:53:44.052Z,93023.16
2023-03-06T08:56:32.338Z,93027.59
2023-03-06T08:59:00.889Z,93020.78
2023-03-06T09:01:30.187Z,93029.13
2023-03-06T09:03:59.825Z,93016.22
2023-03-06T09:06:27.434Z,93007.94
2023-03-06T09:08:54.687Z,93007.34
2023-03-06T09:11:22.828Z,93015.41
2023-03-06T09:13:49.562Z,93019.75
2023-03-06T09:16:16.409Z,93015.78
2023-03-06T09:18:43.261Z,93009.47
2023-03-06T09:21:10.200Z,93007.59
2023-03-06T09:23:39.635Z,93008.38
2023-03-06T09:26:07.725Z,93021.53
2023-03-06T09:28:39.256Z,93004.44
2023-03-06T09:31:13.106Z,93003.53
2023-03-06T09:33:39.983Z,93013.59
2023-03-06T09:36:15.967Z,93013.53
2023-03-06T09:38:42.856Z,93009.88
2023-03-06T09:41:23.716Z,93012.03
2023-03-06T09:43:56.663Z,93009.84
2023-03-06T09:46:46.702Z,93007.25
2023-03-06T09:49:13.395Z,93012.16
2023-03-06T09:51:51.509Z,93005.72
2023-03-06T09:54:20.650Z,93008.38
2023-03-06T09:56:49.923Z,93008.09
2023-03-06T09:59:21.438Z,93008.38
2023-03-06T10:02:01.862Z,93019.25
2023-03-06T10:04:42.861Z,93017.47
2023-03-06T10:07:20.978Z,93013.25
2023-03-06T10:10:00.698Z,93015.53
2023-03-06T10:12:31.014Z,93005.34
2023-03-06T10:15:03.871Z,93004.44
2023-03-06T10:17:41.658Z,93002.84
2023-03-06T10:20:30.699Z,92994.47
2023-03-06T10:23:28.548Z,92995.28
2023-03-06T10:26:02.014Z,92995.50
2023-03-06T10:28:33.802Z,92995.28
2023-03-06T10:31:08.382Z,92998.22
2023-03-06T10:33:59.756Z,92982.16
2023-03-06T10:36:28.229Z,92982.06
2023-03-06T10:38:57.357Z,92992.03
2023-03-06T10:41:29.992Z,92985.00
2023-03-06T10:43:59.692Z,92981.53
2023-03-06T10:46:28.971Z,92976.63
2023-03-06T10:49:04.242Z,92977.53
2023-03-06T10:51:31.884Z,92983.03
2023-03-06T10:54:19.444Z,92971.41
2023-03-06T10:56:47.197Z,92973.72
2023-03-06T10:59:19.598Z,92960.28
2023-03-06T11:01:51.793Z,92961.97
2023-03-06T11:04:26.621Z,92962.50
2023-03-06T11:07:15.980Z,92954.91
2023-03-06T11:09:58.509Z,92951.41
2023-03-06T11:12:39.386Z,92953.88
2023-03-06T11:15:15.268Z,92943.53
2023-03-06T11:18:06.030Z,92947.69
2023-03-06T11:20:51.554Z,92946.22
2023-03-06T11:23:25.468Z,92947.25
2023-03-06T11:25:56.296Z,92942.47
2023-03-06T11:28:30.323Z,92942.31
2023-03-06T11:31:10.979Z,92939.56
2023-03-06T11:33:46.536Z,92933.13
2023-03-06T11:36:16.280Z,92924.88
2023-03-06T11:38:49.227Z,92925.31
2023-03-06T11:41:34.436Z,92930.38
2023-03-06T11:44:24.698Z,92922.81
2023-03-06T11:46:58.386Z,92914.69
2023-03-06T11:49:25.167Z,92903.84
2023-03-06T11:52:04.900Z,92903.31
2023-03-06T11:54:32.278Z,92896.19
2023-03-06T11:57:02.664Z,92895.44
2023-03-06T11:59:41.518Z,92895.47
2023-03-06T12:02:26.534Z,92877.28
2023-03-06T12:05:02.592Z,92873.66
2023-03-06T12:07:34.587Z,92870.31
2023-03-06T12:10:16.013Z,92866.16
2023-03-06T12:13:27.392Z,92867.78
2023-03-06T12:16:39.339Z,92870.41
2023-03-06T12:19:24.523Z,92866.84
2023-03-06T12:21:57.051Z,92864.63
2023-03-06T12:24:42.511Z,92864.72
2023-03-06T12:27:21.342Z,92856.50
2023-03-06T12:29:53.878Z,92851.75
2023-03-06T12:33:14.690Z,92840.09
2023-03-06T12:35:53.347Z,92835.84
2023-03-06T12:38:32.101Z,92836.00
2023-03-06T12:41:02.203Z,92836.84
2023-03-06T12:43:50.858Z,92838.53
2023-03-06T12:46:23.903Z,92831.59
2023-03-06T12:49:03.713Z,92822.03
2023-03-06T12:51:31.703Z,92823.66
2023-03-06T12:53:59.504Z,92819.69
2023-03-06T12:56:26.794Z,92819.97
2023-03-06T12:58:55.114Z,92822.56
2023-03-06T13:01:51.789Z,92822.19
2023-03-06T13:04:45.376Z,92823.06
2023-03-06T13:07:36.873Z,92804.69
2023-03-06T13:10:26.661Z,92826.25
2023-03-06T13:13:15.985Z,92825.94
2023-03-06T13:15:46.782Z,92821.22
2023-03-06T13:18:22.649Z,92824.69
2023-03-06T13:20:53.606Z,92826.41
2023-03-06T13:23:29.609Z,92825.44
2023-03-06T13:26:02.149Z,92819.03
2023-03-06T13:28:47.781Z,92816.03
2023-03-06T13:31:38.545Z,92833.13
2023-03-06T13:34:06.701Z,92812.66
2023-03-06T13:36:39.682Z,92815.94
2023-03-06T13:39:10.816Z,92818.19
2023-03-06T13:41:55.415Z,92811.03
2023-03-06T13:44:25.320Z,92810.41
2023-03-06T13:47:00.982Z,92808.25
2023-03-06T13:49:27.929Z,92806.31
2023-03-06T13:51:54.736Z,92803.03
2023-03-06T13:54:44.677Z,92798.28
2023-03-06T13:57:20.389Z,92805.47
2023-03-06T14:00:11.645Z,92804.09
2023-03-06T14:02:56.568Z,92804.03
2023-03-06T14:05:23.948Z,92804.91
2023-03-06T14:08:04.121Z,92796.38
2023-03-06T14:10:34.575Z,92809.34
2023-03-06T14:13:18.714Z,92809.31
2023-03-06T14:15:49.241Z,92814.91
2023-03-06T14:18:19.964Z,92819.03
2023-03-06T14:20:52.635Z,92812.31
2023-03-06T14:23:35.540Z,92796.72
2023-03-06T14:26:15.360Z,92819.50
2023-03-06T14:28:43.894Z,92819.75
2023-03-06T14:31:22.905Z,92806.97
2023-03-06T14:33:56.728Z,92818.72
2023-03-06T14:36:32.316Z,92818.72
2023-03-06T14:39:02.586Z,92824.19
2023-03-06T14:41:32.190Z,92823.94
2023-03-06T14:44:22.229Z,92819.91
2023-03-06T14:46:55.137Z,92828.38
2023-03-06T14:49:26.041Z,92821.19
2023-03-06T14:51:55.454Z,92824.41
2023-03-06T14:54:26.381Z,92828.56
2023-03-06T14:57:06.183Z,92832.81
2023-03-06T14:59:52.981Z,92836.19
2023-03-06T15:02:22.469Z,92834.22
2023-03-06T15:05:35.814Z,92824.28
2023-03-06T15:08:04.621Z,92819.78
2023-03-06T15:10:33.939Z,92818.44
2023-03-06T15:13:20.789Z,92831.81
2023-03-06T15:16:06.270Z,92833.75
2023-03-06T15:18:38.936Z,92844.75
2023-03-06T15:21:19.627Z,92847.47
2023-03-06T15:23:48.667Z,92837.22
2023-03-06T15:26:22.120Z,92845.88
2023-03-06T15:29:10.017Z,92833.78
2023-03-06T15:31:42.341Z,92832.75
2023-03-06T15:34:11.839Z,92848.84
2023-03-06T15:36:49.236Z,92852.66
2023-03-06T15:39:46.669Z,92854.84
2023-03-06T15:42:20.281Z,92849.88
2023-03-06T15:44:49.269Z,92842.66
2023-03-06T15:47:16.041Z,92842.69
2023-03-06T15:49:43.084Z,92843.00
2023-03-06T15:52:10.106Z,92847.38
2023-03-06T15:54:37.065Z,92857.09
2023-03-06T15:57:08.581Z,92855.31
2023-03-06T15:59:41.663Z,92854.16
2023-03-06T16:02:19.550Z,92859.09
2023-03-06T16:04:46.866Z,92855.28
2023-03-06T16:07:14.224Z,92855.81
2023-03-06T16:09:42.251Z,92856.22
2023-03-06T16:12:27.933Z,92850.56
2023-03-06T16:15:01.776Z,92849.06
2023-03-06T16:17:28.521Z,92865.38
2023-03-06T16:19:55.291Z,92867.41
2023-03-06T16:22:22.048Z,92868.91
2023-03-06T16:24:49.597Z,92876.88
2023-03-06T16:27:19.164Z,92884.25
2023-03-06T16:29:45.937Z,92880.78
2023-03-06T16:32:12.711Z,92888.59
2023-03-06T16:34:39.525Z,92883.03
2023-03-06T16:37:06.441Z,92882.56
2023-03-06T16:39:33.773Z,92875.56
2023-03-06T16:42:00.448Z,92881.25
2023-03-06T16:44:27.189Z,92867.19
2023-03-06T16:46:53.894Z,92886.63
2023-03-06T16:49:23.057Z,92888.22
2023-03-06T16:51:50.398Z,92890.94
2023-03-06T16:54:17.199Z,92890.28
2023-03-06T16:56:43.943Z,92890.34
2023-03-06T16:59:11.567Z,92895.09
2023-03-06T17:01:42.662Z,92893.00
2023-03-06T17:04:09.584Z,92901.84
2023-03-06T17:06:36.520Z,92910.88
2023-03-06T17:09:04.137Z,92912.94
2023-03-06T17:11:30.877Z,92915.81
2023-03-06T17:13:57.646Z,92916.50
2023-03-06T17:16:24.441Z,92934.38
2023-03-06T17:18:52.621Z,92929.88
2023-03-06T17:21:19.598Z,92937.47
2023-03-06T17:23:46.431Z,92939.22
2023-03-06T17:26:15.544Z,92949.19
2023-03-06T17:28:42.525Z,92932.78
2023-03-06T17:31:18.233Z,92948.25
2023-03-06T17:33:45.118Z,92948.56
2023-03-06T17:36:14.407Z,92951.13
2023-03-06T17:38:41.908Z,92954.13
2023-03-06T17:41:09.879Z,92950.56
2023-03-06T17:43:37.444Z,92948.69
2023-03-06T17:46:12.201Z,92954.44
2023-03-06T17:48:39.937Z,92958.00
2023-03-06T17:51:07.563Z,92964.41
2023-03-06T17:53:34.421Z,92961.22
2023-03-06T17:56:04.431Z,92955.44
2023-03-06T17:58:32.702Z,92962.66
2023-03-06T18:00:59.958Z,92939.53
2023-03-06T18:03:27.093Z,92963.56
2023-03-06T18:06:04.812Z,92944.28
2023-03-06T18:08:32.318Z,92963.28
2023-03-06T18:11:04.332Z,92971.78
2023-03-06T18:13:34.823Z,92976.34
2023-03-06T18:16:01.879Z,92969.84
2023-03-06T18:18:29.457Z,92961.34
2023-03-06T18:20:56.367Z,92974.91
2023-03-06T18:23:23.562Z,92963.94
2023-03-06T18:25:50.765Z,92968.41
2023-03-06T18:28:18.063Z,92960.94
2023-03-06T18:30:44.939Z,92964.94
2023-03-06T18:33:11.664Z,92966.72
2023-03-06T18:35:38.349Z,92962.56
2023-03-06T18:38:05.304Z,92965.75
2023-03-06T18:40:32.159Z,92972.66
2023-03-06T18:42:58.908Z,92967.31
2023-03-06T18:45:25.747Z,92971.63
2023-03-06T18:47:52.668Z,92982.69
2023-03-06T18:50:19.435Z,92975.22
2023-03-06T18:52:46.394Z,92969.72
2023-03-06T18:55:13.116Z,92973.34
2023-03-06T18:57:40.043Z,92963.75
2023-03-06T19:00:07.389Z,92976.75
2023-03-06T19:02:34.074Z,92971.59
2023-03-06T19:05:00.793Z,92971.25
2023-03-06T19:07:27.569Z,92973.81
2023-03-06T19:09:54.351Z,92972.25
2023-03-06T19:12:21.147Z,92973.06
2023-03-06T19:14:48.017Z,92981.53
2023-03-06T19:17:14.742Z,92992.81
2023-03-06T19:19:41.560Z,92988.47
2023-03-06T19:22:08.978Z,92985.31
2023-03-06T19:24:35.639Z,92992.59
2023-03-06T19:27:02.348Z,92989.84
2023-03-06T19:29:29.322Z,92979.78
2023-03-06T19:31:57.339Z,92974.13
2023-03-06T19:34:24.207Z,92977.44
2023-03-06T19:36:51.502Z,92978.66
2023-03-06T19:39:18.315Z,92981.63
2023-03-06T19:41:47.103Z,92979.47
2023-03-06T19:44:14.674Z,92976.31
2023-03-06T19:46:41.577Z,92971.59
2023-03-06T19:49:12.211Z,92975.19
2023-03-06T19:51:39.028Z,92993.56
2023-03-06T19:54:05.976Z,92995.53
2023-03-06T19:56:34.066Z,92982.88
2023-03-06T19:59:00.912Z,92988.81
2023-03-06T20:01:28.266Z,92997.25
2023-03-06T20:03:59.432Z,92992.16
2023-03-06T20:06:28.915Z,92989.41
2023-03-06T20:08:56.275Z,92994.50
2023-03-06T20:11:25.875Z,92992.50
2023-03-06T20:13:53.074Z,92988.16
2023-03-06T20:16:20.401Z,92995.28
2023-03-06T20:18:47.131Z,92992.50
2023-03-06T20:21:14.574Z,92989.72
2023-03-06T20:23:41.910Z,92992.47
2023-03-06T20:26:12.144Z,92990.09
2023-03-06T20:28:39.541Z,93006.31
2023-03-06T20:31:11.242Z,93006.91
2023-03-06T20:33:38.040Z,92996.84
2023-03-06T20:36:05.391Z,93001.56
2023-03-06T20:38:32.230Z,92998.03
2023-03-06T20:40:59.781Z,92998.03
2023-03-06T20:43:26.576Z,93002.56
2023-03-06T20:46:01.545Z,93010.72
2023-03-06T20:48:29.263Z,93011.91
2023-03-06T20:51:01.011Z,92993.56
2023-03-06T20:53:28.117Z,92996.53
2023-03-06T20:55:55.025Z,92997.91
2023-03-06T20:58:23.457Z,92998.13
2023-03-06T21:00:50.056Z,92999.47
2023-03-06T21:03:16.673Z,92994.34
2023-03-06T21:05:46.136Z,92994.53
2023-03-06T21:08:12.723Z,92994.16
2023-03-06T21:10:39.376Z,93002.44
2023-03-06T21:13:06.099Z,92994.34
2023-03-06T21:15:32.850Z,92995.13
2023-03-06T21:17:59.447Z,92980.53
2023-03-06T21:20:26.145Z,92990.59
2023-03-06T21:22:52.787Z,92992.19
2023-03-06T21:25:19.484Z,93000.88
2023-03-06T21:27:46.582Z,93000.47
2023-03-06T21:30:13.517Z,93006.78
2023-03-06T21:32:40.960Z,92994.19
2023-03-06T21:35:07.742Z,92988.88
2023-03-06T21:37:34.314Z,93000.31
2023-03-06T21:40:01.040Z,92997.34
2023-03-06T21:42:27.698Z,92997.94
2023-03-06T21:44:54.288Z,92990.66
2023-03-06T21:47:20.921Z,93005.28
2023-03-06T21:49:48.945Z,92999.56
2023-03-06T21:52:15.589Z,92998.97
2023-03-06T21:54:42.295Z,92996.59
2023-03-06T21:57:08.935Z,93000.78
2023-03-06T21:59:36.502Z,92992.50
2023-03-06T22:02:03.198Z,92982.41
2023-03-06T22:04:29.813Z,92984.63
2023-03-06T22:06:56.495Z,92992.50
2023-03-06T22:09:23.222Z,92972.59
2023-03-06T22:11:49.769Z,92977.31
2023-03-06T22:14:16.367Z,92974.31
2023-03-06T22:16:42.982Z,92965.47
2023-03-06T22:19:09.671Z,92964.50
2023-03-06T22:21:36.371Z,92960.00
2023-03-06T22:24:03.205Z,92964.69
2023-03-06T22:26:29.970Z,92965.09
2023-03-06T22:28:56.617Z,92954.88
2023-03-06T22:31:25.819Z,92962.56
2023-03-06T22:33:53.618Z,92946.38
2023-03-06T22:36:22.286Z,92944.63
2023-03-06T22:38:49.383Z,92943.44
2023-03-06T22:41:17.615Z,92953.69
2023-03-06T22:43:44.237Z,92948.56
2023-03-06T22:46:13.942Z,92950.53
2023-03-06T22:48:41.067Z,92947.00
2023-03-06T22:51:10.644Z,92939.09
2023-03-06T22:53:38.021Z,92941.28
2023-03-06T22:56:06.616Z,92950.56
2023-03-06T22:58:40.416Z,92944.06
2023-03-06T23:01:09.979Z,92946.59
2023-03-06T23:03:38.678Z,92934.41
2023-03-06T23:06:10.479Z,92941.91
2023-03-06T23:08:37.436Z,92938.53
2023-03-06T23:11:09.295Z,92934.78
2023-03-06T23:13:36.863Z,92936.34
2023-03-06T23:16:05.334Z,92936.75
2023-03-06T23:18:32.357Z,92939.50
2023-03-06T23:20:59.030Z,92940.50
2023-03-06T23:23:26.570Z,92940.88
2023-03-06T23:25:59.089Z,92941.66
2023-03-06T23:28:26.302Z,92942.66
2023-03-06T23:30:53.072Z,92942.44
2023-03-06T23:33:19.710Z,92936.88
2023-03-06T23:35:46.755Z,92944.38
2023-03-06T23:38:13.924Z,92937.69
2023-03-06T23:40:40.537Z,92946.13
2023-03-06T23:43:07.237Z,92943.38
2023-03-06T23:45:33.917Z,92949.66
2023-03-06T23:48:00.471Z,92946.88
2023-03-06T23:50:27.121Z,92947.25
2023-03-06T23:52:54.649Z,92948.78
2023-03-06T23:55:21.479Z,92945.63
2023-03-06T23:57:48.064Z,92940.91
